createdAt,value
2023-05-31T00:01:10.706Z,66.95
2023-05-31T00:06:14.973Z,68.55
2023-05-31T00:11:17.950Z,68.11
2023-05-31T00:16:52.344Z,69.29
2023-05-31T00:21:46.847Z,69.00
2023-05-31T00:26:50.541Z,69.68
2023-05-31T00:31:53.462Z,70.64
2023-05-31T00:36:57.778Z,70.20
2023-05-31T00:42:00.717Z,70.56
2023-05-31T00:47:03.736Z,70.28
2023-05-31T00:52:09.308Z,71.06
2023-05-31T00:57:12.460Z,71.97
2023-05-31T01:02:18.352Z,71.76
2023-05-31T01:07:22.727Z,72.41
2023-05-31T01:12:35.367Z,72.79
2023-05-31T01:17:46.119Z,73.61
2023-05-31T01:23:13.975Z,73.50
2023-05-31T01:28:18.923Z,73.44
2023-05-31T01:33:23.359Z,74.20
2023-05-31T01:38:26.387Z,74.06
2023-05-31T01:43:33.035Z,74.88
2023-05-31T01:48:36.820Z,74.23
2023-05-31T01:53:39.872Z,74.49
2023-05-31T01:58:49.945Z,75.26
2023-05-31T02:03:53.966Z,75.04
2023-05-31T02:08:57.058Z,75.06
2023-05-31T02:14:04.820Z,75.26
2023-05-31T02:19:07.847Z,76.40
2023-05-31T02:24:10.891Z,77.04
2023-05-31T02:29:15.198Z,77.19
2023-05-31T02:34:19.542Z,77.21
2023-05-31T02:39:22.499Z,76.86
2023-05-31T02:44:27.184Z,77.02
2023-05-31T02:49:30.122Z,77.28
2023-05-31T02:54:33.500Z,76.73
2023-05-31T02:59:38.021Z,77.27
2023-05-31T03:04:45.694Z,77.75
2023-05-31T03:09:50.928Z,77.89
2023-05-31T03:14:55.218Z,77.94
2023-05-31T03:19:58.381Z,77.07
2023-05-31T03:25:01.615Z,77.31
2023-05-31T03:30:07.427Z,77.24
2023-05-31T03:35:16.483Z,77.78
2023-05-31T03:40:20.206Z,76.98
2023-05-31T03:45:25.508Z,76.68
2023-05-31T03:50:30.163Z,75.22
2023-05-31T03:55:33.663Z,68.83
2023-05-31T04:00:38.123Z,59.77
2023-05-31T04:05:41.348Z,55.90
2023-05-31T04:10:45.498Z,55.24
2023-05-31T04:15:49.945Z,53.41
2023-05-31T04:20:54.988Z,53.24
2023-05-31T04:25:58.754Z,51.00
2023-05-31T04:31:03.679Z,50.20
2023-05-31T04:36:10.862Z,48.81
2023-05-31T04:41:15.604Z,49.37
2023-05-31T04:46:20.556Z,48.24
2023-05-31T04:51:25.523Z,47.34
2023-05-31T04:56:28.550Z,47.14
2023-05-31T05:01:33.244Z,48.96
2023-05-31T05:06:42.963Z,48.46
2023-05-31T05:11:46.511Z,46.99
2023-05-31T05:16:51.343Z,46.91
2023-05-31T05:21:54.420Z,45.48
2023-05-31T05:27:00.042Z,45.77
2023-05-31T05:32:05.523Z,46.39
2023-05-31T05:37:08.701Z,45.08
2023-05-31T05:42:13.123Z,42.57
2023-05-31T05:47:17.594Z,43.94
2023-05-31T05:52:22.114Z,43.71
2023-05-31T05:57:26.088Z,41.55
2023-05-31T06:02:35.998Z,43.46
2023-05-31T06:07:39.137Z,45.11
2023-05-31T06:12:42.144Z,44.72
2023-05-31T06:17:49.199Z,43.69
2023-05-31T06:22:52.745Z,43.61
2023-05-31T06:27:58.325Z,41.54
2023-05-31T06:33:03.610Z,42.42
2023-05-31T06:38:06.763Z,40.95
2023-05-31T06:43:09.899Z,43.60
2023-05-31T06:48:36.997Z,42.66
2023-05-31T06:53:59.323Z,42.73
2023-05-31T06:59:03.508Z,42.69
2023-05-31T07:04:08.135Z,41.96
2023-05-31T07:09:11.525Z,41.31
2023-05-31T07:14:34.761Z,40.25
2023-05-31T07:19:46.753Z,40.12
2023-05-31T07:24:50.098Z,38.67
2023-05-31T07:36:11.110Z,35.32
2023-05-31T07:48:15.962Z,37.54
2023-05-31T07:53:20.433Z,33.79
2023-05-31T07:58:23.440Z,32.83
2023-05-31T08:03:27.731Z,36.38
2023-05-31T08:08:33.947Z,34.17
2023-05-31T08:13:36.936Z,32.40
2023-05-31T08:18:39.900Z,32.21
2023-05-31T08:23:44.714Z,31.52
2023-05-31T08:28:47.685Z,29.80
2023-05-31T08:33:58.192Z,29.08
2023-05-31T08:39:04.589Z,31.00
2023-05-31T08:44:08.183Z,29.23
2023-05-31T08:49:12.963Z,32.47
2023-05-31T08:54:19.246Z,31.37
2023-05-31T08:59:23.002Z,29.00
2023-05-31T09:04:27.545Z,33.09
2023-05-31T09:09:31.841Z,30.71
2023-05-31T09:14:35.939Z,31.68
2023-05-31T09:19:42.678Z,30.60
2023-05-31T09:24:53.563Z,30.09
2023-05-31T09:29:57.333Z,29.57
2023-05-31T09:35:12.197Z,31.77
2023-05-31T09:40:17.212Z,32.67
2023-05-31T09:45:21.373Z,35.19
2023-05-31T09:50:25.545Z,31.10
2023-05-31T09:55:41.565Z,33.05
2023-05-31T10:00:47.578Z,31.78
2023-05-31T10:05:51.047Z,30.27
2023-05-31T10:10:56.407Z,30.45
2023-05-31T10:16:06.039Z,33.55
2023-05-31T10:21:11.528Z,35.23
2023-05-31T10:26:18.659Z,33.00
2023-05-31T10:31:24.855Z,29.71
2023-05-31T10:36:28.680Z,28.07
2023-05-31T10:41:43.236Z,27.67
2023-05-31T10:46:49.312Z,28.61
2023-05-31T10:51:52.254Z,26.49
2023-05-31T10:56:56.994Z,28.07
2023-05-31T11:02:01.515Z,28.49
2023-05-31T11:07:17.682Z,28.38
2023-05-31T11:12:33.859Z,28.45
2023-05-31T11:17:53.541Z,28.87
2023-05-31T11:23:42.314Z,30.49
2023-05-31T11:28:58.461Z,26.26
2023-05-31T11:34:19.872Z,27.82
2023-05-31T11:39:22.984Z,28.15
2023-05-31T11:44:31.868Z,30.42
2023-05-31T11:49:35.373Z,27.84
2023-05-31T11:54:38.993Z,27.55
2023-05-31T11:59:43.302Z,27.96
2023-05-31T12:04:46.385Z,26.72
2023-05-31T12:09:49.630Z,27.62
2023-05-31T12:14:55.775Z,27.94
2023-05-31T12:19:58.822Z,28.95
2023-05-31T12:25:02.914Z,27.50
2023-05-31T12:30:08.845Z,27.89
2023-05-31T12:35:13.990Z,27.04
2023-05-31T12:40:23.582Z,26.06
2023-05-31T12:45:29.390Z,27.67
2023-05-31T12:50:32.552Z,26.74
2023-05-31T12:55:36.108Z,26.90
2023-05-31T13:00:40.713Z,26.77
2023-05-31T13:05:43.842Z,27.63
2023-05-31T13:10:47.137Z,26.66
2023-05-31T13:15:51.803Z,26.75
2023-05-31T13:20:54.926Z,26.90
2023-05-31T13:25:58.031Z,28.00
2023-05-31T13:31:02.641Z,25.54
2023-05-31T13:36:06.062Z,26.54
2023-05-31T13:41:10.322Z,25.88
2023-05-31T13:46:15.566Z,25.82
2023-05-31T13:51:18.637Z,26.76
2023-05-31T13:56:22.879Z,27.31
2023-05-31T14:01:27.362Z,26.86
2023-05-31T14:06:30.492Z,28.53
2023-05-31T14:11:33.429Z,27.15
2023-05-31T14:16:37.820Z,25.88
2023-05-31T14:21:43.516Z,26.65
2023-05-31T14:26:46.994Z,26.07
2023-05-31T14:31:51.398Z,26.09
2023-05-31T14:36:54.532Z,26.99
2023-05-31T14:41:57.851Z,26.72
2023-05-31T14:47:02.193Z,26.97
2023-05-31T14:52:08.581Z,26.72
2023-05-31T14:57:11.526Z,26.88
2023-05-31T15:02:16.023Z,26.78
2023-05-31T15:07:19.176Z,26.77
2023-05-31T15:12:23.240Z,26.32
2023-05-31T15:17:28.016Z,26.42
2023-05-31T15:22:31.202Z,28.09
2023-05-31T15:27:34.196Z,26.49
2023-05-31T15:32:38.547Z,26.75
2023-05-31T15:37:41.580Z,28.97
2023-05-31T15:42:44.610Z,27.74
2023-05-31T15:47:48.911Z,27.38
2023-05-31T15:52:51.921Z,27.95
2023-05-31T15:57:54.836Z,27.82
2023-05-31T16:02:59.213Z,28.60
2023-05-31T16:08:05.854Z,27.88
2023-05-31T16:13:09.480Z,27.58
2023-05-31T16:18:13.930Z,28.39
2023-05-31T16:23:16.890Z,28.55
2023-05-31T16:28:19.876Z,29.92
2023-05-31T16:33:25.386Z,29.09
2023-05-31T16:38:28.438Z,27.93
2023-05-31T16:43:31.401Z,28.92
2023-05-31T16:48:37.595Z,29.18
2023-05-31T16:53:46.536Z,29.25
2023-05-31T16:58:49.553Z,29.02
2023-05-31T17:03:53.975Z,29.34
2023-05-31T17:08:56.934Z,31.13
2023-05-31T17:13:59.869Z,30.39
2023-05-31T17:19:04.219Z,31.08
2023-05-31T17:24:07.669Z,33.89
2023-05-31T17:29:10.878Z,34.82
2023-05-31T17:34:15.472Z,35.97
2023-05-31T17:39:18.456Z,31.91
2023-05-31T17:44:21.532Z,29.93
2023-05-31T17:49:25.959Z,34.85
2023-05-31T17:54:28.981Z,36.62
2023-05-31T17:59:32.038Z,35.35
2023-05-31T18:04:36.390Z,38.27
2023-05-31T18:09:39.314Z,37.96
2023-05-31T18:14:42.300Z,36.43
2023-05-31T18:19:46.608Z,36.30
2023-05-31T18:24:49.549Z,37.01
2023-05-31T18:29:52.883Z,39.54
2023-05-31T18:34:57.378Z,39.15
2023-05-31T18:40:00.306Z,40.62
2023-05-31T18:45:03.536Z,40.50
2023-05-31T18:50:09.074Z,41.21
2023-05-31T18:55:12.090Z,41.43
2023-05-31T19:00:16.430Z,42.17
2023-05-31T19:05:21.398Z,42.96
2023-05-31T19:10:24.353Z,44.19
2023-05-31T19:15:27.733Z,43.59
2023-05-31T19:20:32.046Z,44.39
2023-05-31T19:25:35.354Z,45.48
2023-05-31T19:30:38.357Z,45.72
2023-05-31T19:35:42.695Z,45.31
2023-05-31T19:40:45.660Z,46.64
2023-05-31T19:45:48.744Z,47.87
2023-05-31T19:50:53.336Z,49.85
2023-05-31T19:55:56.364Z,48.68
2023-05-31T20:00:59.297Z,48.91
2023-05-31T20:06:04.433Z,50.56
2023-05-31T20:11:07.798Z,50.48
2023-05-31T20:16:11.955Z,50.77
2023-05-31T20:21:17.411Z,51.42
2023-05-31T20:26:22.828Z,51.48
2023-05-31T20:31:25.813Z,53.18
2023-05-31T20:36:30.153Z,55.73
2023-05-31T20:41:33.157Z,54.97
2023-05-31T20:46:36.251Z,55.55
2023-05-31T20:51:40.602Z,56.73
2023-05-31T20:56:43.564Z,57.07
2023-05-31T21:01:47.130Z,57.49
2023-05-31T21:06:51.610Z,58.05
2023-05-31T21:11:54.618Z,59.20
2023-05-31T21:16:58.299Z,59.74
2023-05-31T21:22:02.738Z,61.17
2023-05-31T21:27:06.411Z,60.81
2023-05-31T21:32:09.691Z,61.30
2023-05-31T21:37:14.001Z,62.52
2023-05-31T21:42:16.973Z,63.25
2023-05-31T21:47:19.940Z,63.33
2023-05-31T21:52:30.436Z,63.52
2023-05-31T21:57:33.377Z,64.24
2023-05-31T22:02:36.379Z,64.25
2023-05-31T22:07:40.695Z,65.60
2023-05-31T22:12:43.929Z,65.33
2023-05-31T22:17:53.184Z,65.92
2023-05-31T22:22:58.818Z,65.87
2023-05-31T22:28:01.794Z,66.71
2023-05-31T22:33:04.930Z,66.71
2023-05-31T22:38:09.255Z,67.78
2023-05-31T22:43:12.234Z,68.07
2023-05-31T22:48:15.110Z,68.52
2023-05-31T22:53:19.410Z,68.59
2023-05-31T22:58:22.310Z,69.88
2023-05-31T23:03:25.698Z,69.21
2023-05-31T23:08:31.339Z,70.09
2023-05-31T23:13:36.834Z,70.35
2023-05-31T23:18:39.817Z,71.11
2023-05-31T23:23:44.140Z,71.30
2023-05-31T23:28:47.043Z,71.12
2023-05-31T23:33:49.962Z,71.56
2023-05-31T23:38:56.910Z,72.18
2023-05-31T23:43:59.877Z,72.28
2023-05-31T23:49:03.478Z,72.80
2023-05-31T23:54:10.787Z,72.58
2023-05-31T23:59:13.760Z,73.92
